createdAt,value
2019-04-25T00:01:56.327Z,13.39
2019-04-25T00:04:25.928Z,13.35
2019-04-25T00:06:54.359Z,13.33
2019-04-25T00:09:23.544Z,13.28
2019-04-25T00:11:52.430Z,13.30
2019-04-25T00:14:22.587Z,13.29
2019-04-25T00:16:52.312Z,13.27
2019-04-25T00:19:21.884Z,13.24
2019-04-25T00:22:11.767Z,13.24
2019-04-25T00:24:48.164Z,13.24
2019-04-25T00:27:16.662Z,13.26
2019-04-25T00:29:45.807Z,13.26
2019-04-25T00:32:14.477Z,13.25
2019-04-25T00:34:44.245Z,13.16
2019-04-25T00:37:13.950Z,13.12
2019-04-25T00:39:44.744Z,13.13
2019-04-25T00:42:12.572Z,13.12
2019-04-25T00:44:43.450Z,13.15
2019-04-25T00:47:11.732Z,13.20
2019-04-25T00:49:42.096Z,13.21
2019-04-25T00:52:11.628Z,13.20
2019-04-25T00:54:41.418Z,13.17
2019-04-25T00:57:12.138Z,13.18
2019-04-25T00:59:45.490Z,13.13
2019-04-25T01:02:24.665Z,13.07
2019-04-25T01:04:54.125Z,13.03
2019-04-25T01:07:22.584Z,13.01
2019-04-25T01:09:52.468Z,12.93
2019-04-25T01:12:21.695Z,12.85
2019-04-25T01:14:50.990Z,12.77
2019-04-25T01:17:21.229Z,12.68
2019-04-25T01:19:50.998Z,12.68
2019-04-25T01:22:19.462Z,12.70
2019-04-25T01:24:47.842Z,12.71
2019-04-25T01:27:16.236Z,12.70
2019-04-25T01:29:44.650Z,12.71
2019-04-25T01:32:14.604Z,12.73
2019-04-25T01:35:00.486Z,12.71
2019-04-25T01:37:48.956Z,12.74
2019-04-25T01:40:35.379Z,12.73
2019-04-25T01:43:05.571Z,12.70
2019-04-25T01:45:35.639Z,12.67
2019-04-25T01:48:04.287Z,12.66
2019-04-25T01:50:33.201Z,12.67
2019-04-25T01:53:03.394Z,12.67
2019-04-25T01:55:33.595Z,12.65
2019-04-25T01:58:03.757Z,12.59
2019-04-25T02:00:33.874Z,12.59
2019-04-25T02:03:04.479Z,12.59
2019-04-25T02:05:33.781Z,12.55
2019-04-25T02:08:04.388Z,12.53
2019-04-25T02:10:34.445Z,12.55
2019-04-25T02:13:04.478Z,12.57
2019-04-25T02:15:33.535Z,12.57
2019-04-25T02:18:03.805Z,12.56
2019-04-25T02:20:33.964Z,12.55
2019-04-25T02:23:04.160Z,12.49
2019-04-25T02:25:33.267Z,12.43
2019-04-25T02:28:03.141Z,12.39
2019-04-25T02:30:31.735Z,12.35
2019-04-25T02:33:02.760Z,12.34
2019-04-25T02:35:30.684Z,12.29
2019-04-25T02:38:01.301Z,12.21
2019-04-25T02:40:29.066Z,12.14
2019-04-25T02:43:00.131Z,12.04
2019-04-25T02:45:38.533Z,11.97
2019-04-25T02:48:17.748Z,11.93
2019-04-25T02:50:55.445Z,11.88
2019-04-25T02:53:25.352Z,11.85
2019-04-25T02:55:53.947Z,11.80
2019-04-25T02:58:24.192Z,11.76
2019-04-25T03:01:03.331Z,11.75
2019-04-25T03:03:24.549Z,11.73
2019-04-25T03:05:54.864Z,11.70
2019-04-25T03:08:24.484Z,11.65
2019-04-25T03:10:54.281Z,11.59
2019-04-25T03:13:24.664Z,11.59
2019-04-25T03:15:55.418Z,11.59
2019-04-25T03:18:24.952Z,11.55
2019-04-25T03:21:01.221Z,11.50
2019-04-25T03:23:35.352Z,11.49
2019-04-25T03:26:05.829Z,11.52
2019-04-25T03:28:34.444Z,11.55
2019-04-25T03:31:08.567Z,11.54
2019-04-25T03:33:37.890Z,11.54
2019-04-25T03:36:05.538Z,11.53
2019-04-25T03:38:34.680Z,11.56
2019-04-25T03:41:04.815Z,11.53
2019-04-25T03:43:33.363Z,11.52
2019-04-25T03:46:02.497Z,11.44
2019-04-25T03:48:31.780Z,11.33
2019-04-25T03:51:02.249Z,11.26
2019-04-25T03:53:30.847Z,11.21
2019-04-25T03:55:59.140Z,11.16
2019-04-25T03:58:27.476Z,11.09
2019-04-25T04:00:55.865Z,11.05
2019-04-25T04:03:24.232Z,11.02
2019-04-25T04:05:54.026Z,11.01
2019-04-25T04:08:24.191Z,11.01
2019-04-25T04:10:54.236Z,10.99
2019-04-25T04:13:24.338Z,10.94
2019-04-25T04:15:53.272Z,10.87
2019-04-25T04:18:26.900Z,10.85
2019-04-25T04:20:55.897Z,10.81
2019-04-25T04:23:33.204Z,10.79
2019-04-25T04:26:03.280Z,10.72
2019-04-25T04:28:33.642Z,10.69
2019-04-25T04:31:03.699Z,10.65
2019-04-25T04:33:34.483Z,10.62
2019-04-25T04:36:03.899Z,10.64
2019-04-25T04:38:32.397Z,10.63
2019-04-25T04:41:03.867Z,10.63
2019-04-25T04:43:34.122Z,10.61
2019-04-25T04:46:03.938Z,10.61
2019-04-25T04:48:34.109Z,10.62
2019-04-25T04:51:03.447Z,10.61
2019-04-25T04:53:33.878Z,10.62
2019-04-25T04:56:04.154Z,10.63
2019-04-25T04:58:34.205Z,10.64
2019-04-25T05:01:03.705Z,10.63
2019-04-25T05:03:44.061Z,10.65
2019-04-25T05:06:20.199Z,10.63
2019-04-25T05:08:53.245Z,10.61
2019-04-25T05:11:23.899Z,10.62
2019-04-25T05:13:54.045Z,10.65
2019-04-25T05:16:23.825Z,10.68
2019-04-25T05:18:53.603Z,10.69
2019-04-25T05:21:22.575Z,10.75
2019-04-25T05:23:50.966Z,10.78
2019-04-25T05:26:19.286Z,10.87
2019-04-25T05:28:47.844Z,10.88
2019-04-25T05:31:26.871Z,10.90
2019-04-25T05:33:55.280Z,10.96
2019-04-25T05:36:25.259Z,11.04
2019-04-25T05:38:53.959Z,11.11
2019-04-25T05:41:33.742Z,11.14
2019-04-25T05:44:04.485Z,11.17
2019-04-25T05:46:34.158Z,11.20
2019-04-25T05:49:03.483Z,11.27
2019-04-25T05:51:33.753Z,11.34
2019-04-25T05:54:04.073Z,11.38
2019-04-25T05:56:33.783Z,11.47
2019-04-25T05:59:03.358Z,11.57
2019-04-25T06:01:35.585Z,11.62
2019-04-25T06:04:05.410Z,11.74
2019-04-25T06:06:36.671Z,11.80
2019-04-25T06:09:07.075Z,11.84
2019-04-25T06:11:53.370Z,11.88
2019-04-25T06:14:23.668Z,11.94
2019-04-25T06:16:53.695Z,12.00
2019-04-25T06:19:41.390Z,12.06
2019-04-25T06:22:11.317Z,12.14
2019-04-25T06:24:47.060Z,12.21
2019-04-25T06:27:17.050Z,12.29
2019-04-25T06:29:57.695Z,12.38
2019-04-25T06:32:16.986Z,12.49
2019-04-25T06:34:45.434Z,12.62
2019-04-25T06:37:13.984Z,12.73
2019-04-25T06:39:44.112Z,12.79
2019-04-25T06:42:13.728Z,12.86
2019-04-25T06:44:43.869Z,12.99
2019-04-25T06:47:20.239Z,13.04
2019-04-25T06:49:49.354Z,13.13
2019-04-25T06:52:17.689Z,13.18
2019-04-25T06:54:45.973Z,13.23
2019-04-25T06:57:14.295Z,13.35
2019-04-25T06:59:43.736Z,13.43
2019-04-25T07:02:13.855Z,13.46
2019-04-25T07:04:43.515Z,13.47
2019-04-25T07:07:14.665Z,13.52
2019-04-25T07:09:43.386Z,13.67
2019-04-25T07:12:13.412Z,13.79
2019-04-25T07:14:43.868Z,13.88
2019-04-25T07:17:11.890Z,13.94
2019-04-25T07:19:40.313Z,14.04
2019-04-25T07:22:08.593Z,14.06
2019-04-25T07:24:36.877Z,14.08
2019-04-25T07:27:23.620Z,14.13
2019-04-25T07:29:56.752Z,14.14
2019-04-25T07:32:30.851Z,14.06
2019-04-25T07:34:59.641Z,14.04
2019-04-25T07:37:29.808Z,14.12
2019-04-25T07:39:58.251Z,14.22
2019-04-25T07:42:27.621Z,14.34
2019-04-25T07:44:56.068Z,14.44
2019-04-25T07:47:24.407Z,14.58
2019-04-25T07:49:54.134Z,14.59
2019-04-25T07:52:23.373Z,14.63
2019-04-25T07:54:51.952Z,14.66
2019-04-25T07:57:20.263Z,14.65
2019-04-25T07:59:48.672Z,14.62
2019-04-25T08:02:16.964Z,14.59
2019-04-25T08:04:45.259Z,14.57
2019-04-25T08:07:14.281Z,14.58
2019-04-25T08:09:44.141Z,14.55
2019-04-25T08:12:13.351Z,14.57
2019-04-25T08:14:43.778Z,14.51
2019-04-25T08:17:14.956Z,14.54
2019-04-25T08:19:44.271Z,14.59
2019-04-25T08:22:13.637Z,14.72
2019-04-25T08:24:43.870Z,14.93
2019-04-25T08:27:13.325Z,15.10
2019-04-25T08:29:41.798Z,15.21
2019-04-25T08:32:10.133Z,15.26
2019-04-25T08:34:38.651Z,15.25
2019-04-25T08:37:17.585Z,15.23
2019-04-25T08:39:38.753Z,15.27
2019-04-25T08:42:07.761Z,15.36
2019-04-25T08:44:36.931Z,15.44
2019-04-25T08:47:05.387Z,15.50
2019-04-25T08:49:36.250Z,15.54
2019-04-25T08:52:04.698Z,15.63
2019-04-25T08:54:40.862Z,15.71
2019-04-25T08:57:08.762Z,15.56
2019-04-25T08:59:46.020Z,15.50
2019-04-25T09:02:13.643Z,15.49
2019-04-25T09:04:58.656Z,15.54
2019-04-25T09:07:27.133Z,15.64
2019-04-25T09:09:55.409Z,15.70
2019-04-25T09:12:24.059Z,15.84
2019-04-25T09:14:54.073Z,16.00
2019-04-25T09:17:24.289Z,16.14
2019-04-25T09:19:54.250Z,16.20
2019-04-25T09:22:24.256Z,16.06
2019-04-25T09:24:54.013Z,15.92
2019-04-25T09:27:23.533Z,15.84
2019-04-25T09:29:52.071Z,15.83
2019-04-25T09:32:20.364Z,15.92
2019-04-25T09:34:50.161Z,16.04
2019-04-25T09:37:18.529Z,16.05
2019-04-25T09:39:48.606Z,16.11
2019-04-25T09:42:16.886Z,16.13
2019-04-25T09:45:03.816Z,16.10
2019-04-25T09:47:33.532Z,16.09
2019-04-25T09:50:04.190Z,16.12
2019-04-25T09:52:34.025Z,16.23
2019-04-25T09:55:09.909Z,16.39
2019-04-25T09:57:43.372Z,16.61
2019-04-25T10:00:19.985Z,16.92
2019-04-25T10:02:48.279Z,17.26
2019-04-25T10:05:19.388Z,17.57
2019-04-25T10:07:50.345Z,17.77
2019-04-25T10:10:18.745Z,17.97
2019-04-25T10:12:47.457Z,18.18
2019-04-25T10:15:40.217Z,18.43
2019-04-25T10:18:08.503Z,18.64
2019-04-25T10:20:37.641Z,18.90
2019-04-25T10:23:06.162Z,18.91
2019-04-25T10:25:34.815Z,18.88
2019-04-25T10:28:04.354Z,19.00
2019-04-25T10:30:34.287Z,19.12
2019-04-25T10:33:04.065Z,19.32
2019-04-25T10:35:40.894Z,19.43
2019-04-25T10:38:03.542Z,19.45
2019-04-25T10:40:33.681Z,19.55
2019-04-25T10:43:03.907Z,19.87
2019-04-25T10:45:32.046Z,20.21
2019-04-25T10:48:00.322Z,20.38
2019-04-25T10:50:28.639Z,20.35
2019-04-25T10:52:57.165Z,20.05
2019-04-25T10:55:25.506Z,20.05
2019-04-25T10:57:54.953Z,20.00
2019-04-25T11:00:25.410Z,19.92
2019-04-25T11:02:55.164Z,20.10
2019-04-25T11:05:23.967Z,20.16
2019-04-25T11:07:55.698Z,20.28
2019-04-25T11:10:23.690Z,20.60
2019-04-25T11:12:53.611Z,20.78
2019-04-25T11:15:23.397Z,21.00
2019-04-25T11:17:54.129Z,21.24
2019-04-25T11:20:27.256Z,21.32
2019-04-25T11:22:55.705Z,21.29
2019-04-25T11:25:24.936Z,21.22
2019-04-25T11:27:54.160Z,21.22
2019-04-25T11:30:24.932Z,21.32
2019-04-25T11:32:54.599Z,21.50
2019-04-25T11:35:24.176Z,21.62
2019-04-25T11:37:54.889Z,21.58
2019-04-25T11:40:40.337Z,21.55
2019-04-25T11:43:08.670Z,21.60
2019-04-25T11:45:37.078Z,21.71
2019-04-25T11:48:05.431Z,21.73
2019-04-25T11:50:33.780Z,21.79
2019-04-25T11:53:03.375Z,21.68
2019-04-25T11:55:32.289Z,21.60
2019-04-25T11:58:00.638Z,21.58
2019-04-25T12:00:31.102Z,21.76
2019-04-25T12:02:59.381Z,21.94
2019-04-25T12:05:28.133Z,21.92
2019-04-25T12:07:56.442Z,21.78
2019-04-25T12:10:25.992Z,21.87
2019-04-25T12:12:54.362Z,22.07
2019-04-25T12:15:24.096Z,22.37
2019-04-25T12:17:52.504Z,22.62
2019-04-25T12:20:21.021Z,22.68
2019-04-25T12:22:50.394Z,22.49
2019-04-25T12:25:19.591Z,22.75
2019-04-25T12:27:51.283Z,22.71
2019-04-25T12:30:19.770Z,22.62
2019-04-25T12:32:48.037Z,22.61
2019-04-25T12:35:16.437Z,22.87
2019-04-25T12:37:44.718Z,23.19
2019-04-25T12:40:14.095Z,22.80
2019-04-25T12:42:44.376Z,22.77
2019-04-25T12:45:26.345Z,23.04
2019-04-25T12:47:58.856Z,23.46
2019-04-25T12:50:26.537Z,23.43
2019-04-25T12:52:56.015Z,23.51
2019-04-25T12:55:24.382Z,23.50
2019-04-25T12:57:53.640Z,23.38
2019-04-25T13:00:24.398Z,23.36
2019-04-25T13:02:53.913Z,23.28
2019-04-25T13:05:24.319Z,23.11
2019-04-25T13:07:56.697Z,22.92
2019-04-25T13:10:23.589Z,22.71
2019-04-25T13:12:55.212Z,22.40
2019-04-25T13:15:23.534Z,22.43
2019-04-25T13:17:53.620Z,22.34
2019-04-25T13:20:22.044Z,22.39
2019-04-25T13:22:50.325Z,22.37
2019-04-25T13:25:44.589Z,22.20
2019-04-25T13:28:23.237Z,21.95
2019-04-25T13:31:01.490Z,21.97
2019-04-25T13:33:33.507Z,22.20
2019-04-25T13:36:04.084Z,22.52
2019-04-25T13:38:32.691Z,22.87
2019-04-25T13:41:01.592Z,23.22
2019-04-25T13:43:30.086Z,23.61
2019-04-25T13:45:58.361Z,23.83
2019-04-25T13:48:27.799Z,23.56
2019-04-25T13:50:56.508Z,23.63
2019-04-25T13:53:25.668Z,23.81
2019-04-25T13:55:54.158Z,24.07
2019-04-25T13:58:24.237Z,24.17
2019-04-25T14:00:53.133Z,24.26
2019-04-25T14:03:21.806Z,24.39
2019-04-25T14:05:50.799Z,24.33
2019-04-25T14:08:20.884Z,24.44
2019-04-25T14:10:49.598Z,24.86
2019-04-25T14:13:25.111Z,25.06
2019-04-25T14:16:03.582Z,24.96
2019-04-25T14:18:50.112Z,25.19
2019-04-25T14:21:20.803Z,25.18
2019-04-25T14:23:50.236Z,25.23
2019-04-25T14:26:18.703Z,25.32
2019-04-25T14:28:47.085Z,25.35
2019-04-25T14:31:30.391Z,25.35
2019-04-25T14:33:51.592Z,25.28
2019-04-25T14:36:19.504Z,25.15
2019-04-25T14:38:47.812Z,25.30
2019-04-25T14:41:16.166Z,25.44
2019-04-25T14:43:46.408Z,25.61
2019-04-25T14:46:14.636Z,25.79
2019-04-25T14:48:42.950Z,25.81
2019-04-25T14:51:11.249Z,25.78
2019-04-25T14:53:39.696Z,25.74
2019-04-25T14:56:12.309Z,25.64
2019-04-25T14:58:42.365Z,25.51
2019-04-25T15:01:12.142Z,24.94
2019-04-25T15:03:40.453Z,25.00
2019-04-25T15:06:09.365Z,25.10
2019-04-25T15:08:37.658Z,25.09
2019-04-25T15:11:06.164Z,25.00
2019-04-25T15:13:35.256Z,24.63
2019-04-25T15:16:04.949Z,24.40
2019-04-25T15:18:45.846Z,24.58
2019-04-25T15:21:03.523Z,24.70
2019-04-25T15:23:32.105Z,24.91
2019-04-25T15:26:00.426Z,24.88
2019-04-25T15:28:29.721Z,24.95
2019-04-25T15:30:58.318Z,25.00
2019-04-25T15:33:26.708Z,25.08
2019-04-25T15:35:56.631Z,25.14
2019-04-25T15:38:29.209Z,25.03
2019-04-25T15:41:10.917Z,24.79
2019-04-25T15:43:40.855Z,24.77
2019-04-25T15:46:13.885Z,24.61
2019-04-25T15:48:42.234Z,24.69
2019-04-25T15:51:10.658Z,24.74
2019-04-25T15:53:38.944Z,24.59
2019-04-25T15:56:07.230Z,24.47
2019-04-25T15:58:35.650Z,24.30
2019-04-25T16:01:05.252Z,24.10
2019-04-25T16:03:33.564Z,23.87
2019-04-25T16:06:01.902Z,23.75
2019-04-25T16:08:30.920Z,23.64
2019-04-25T16:10:59.447Z,23.55
2019-04-25T16:13:28.708Z,23.56
2019-04-25T16:15:57.797Z,23.57
2019-04-25T16:18:27.175Z,23.46
2019-04-25T16:20:55.696Z,23.31
2019-04-25T16:23:24.053Z,23.25
2019-04-25T16:25:52.456Z,23.21
2019-04-25T16:28:20.804Z,23.13
2019-04-25T16:30:50.062Z,22.97
2019-04-25T16:33:18.372Z,22.87
2019-04-25T16:35:46.857Z,22.78
2019-04-25T16:38:15.570Z,22.73
2019-04-25T16:40:43.852Z,22.75
2019-04-25T16:43:13.805Z,22.66
2019-04-25T16:45:42.268Z,22.59
2019-04-25T16:48:10.601Z,22.54
2019-04-25T16:50:39.960Z,22.49
2019-04-25T16:53:08.382Z,22.45
2019-04-25T16:55:36.766Z,22.49
2019-04-25T16:58:05.299Z,22.36
2019-04-25T17:00:36.176Z,22.07
2019-04-25T17:03:04.759Z,21.79
2019-04-25T17:05:33.300Z,21.61
2019-04-25T17:08:01.586Z,21.33
2019-04-25T17:10:30.297Z,21.02
2019-04-25T17:12:59.625Z,20.81
2019-04-25T17:15:46.103Z,20.69
2019-04-25T17:18:25.078Z,20.53
2019-04-25T17:21:07.041Z,20.39
2019-04-25T17:23:37.013Z,20.27
2019-04-25T17:26:06.400Z,20.13
2019-04-25T17:28:36.996Z,20.14
2019-04-25T17:31:09.060Z,20.14
2019-04-25T17:33:46.801Z,20.10
2019-04-25T17:36:36.039Z,20.03
2019-04-25T17:39:22.994Z,19.99
2019-04-25T17:41:54.271Z,19.88
2019-04-25T17:44:22.566Z,19.79
2019-04-25T17:46:50.876Z,19.74
2019-04-25T17:49:19.205Z,19.66
2019-04-25T17:51:47.831Z,19.60
2019-04-25T17:54:18.437Z,19.55
2019-04-25T17:56:46.948Z,19.53
2019-04-25T17:59:15.265Z,19.39
2019-04-25T18:01:44.303Z,19.37
2019-04-25T18:04:12.775Z,19.37
2019-04-25T18:06:42.090Z,19.36
2019-04-25T18:09:10.517Z,19.36
2019-04-25T18:11:38.848Z,19.34
2019-04-25T18:14:07.122Z,19.28
2019-04-25T18:16:42.299Z,19.20
2019-04-25T18:19:12.518Z,19.13
2019-04-25T18:21:40.848Z,19.06
2019-04-25T18:24:16.649Z,19.02
2019-04-25T18:26:50.212Z,18.97
2019-04-25T18:29:20.962Z,18.87
2019-04-25T18:31:50.231Z,18.81
2019-04-25T18:34:22.861Z,18.75
2019-04-25T18:36:55.372Z,18.68
2019-04-25T18:39:34.061Z,18.59
2019-04-25T18:42:08.070Z,18.55
2019-04-25T18:44:36.650Z,18.48
2019-04-25T18:47:04.977Z,18.46
2019-04-25T18:49:33.385Z,18.44
2019-04-25T18:52:03.591Z,18.41
2019-04-25T18:54:51.686Z,18.38
2019-04-25T18:57:21.617Z,18.38
2019-04-25T18:59:54.557Z,18.36
2019-04-25T19:02:42.529Z,18.36
2019-04-25T19:05:18.096Z,18.36
2019-04-25T19:07:47.371Z,18.38
2019-04-25T19:10:15.795Z,18.38
2019-04-25T19:12:45.143Z,18.33
2019-04-25T19:15:13.481Z,18.30
2019-04-25T19:17:43.302Z,18.31
2019-04-25T19:20:11.828Z,18.34
2019-04-25T19:22:41.495Z,18.38
2019-04-25T19:25:10.805Z,18.42
2019-04-25T19:27:39.708Z,18.44
2019-04-25T19:30:10.714Z,18.41
2019-04-25T19:32:39.056Z,18.40
2019-04-25T19:35:07.372Z,18.41
2019-04-25T19:37:35.742Z,18.41
2019-04-25T19:40:05.896Z,18.39
2019-04-25T19:42:45.326Z,18.32
2019-04-25T19:45:13.688Z,18.25
2019-04-25T19:47:42.918Z,18.19
2019-04-25T19:50:11.242Z,18.10
2019-04-25T19:52:39.568Z,17.96
2019-04-25T19:55:08.338Z,17.83
2019-04-25T19:57:36.716Z,17.69
2019-04-25T20:00:06.385Z,17.63
2019-04-25T20:02:36.654Z,17.52
2019-04-25T20:05:11.029Z,17.41
2019-04-25T20:07:53.465Z,17.38
2019-04-25T20:10:26.235Z,17.35
2019-04-25T20:12:55.158Z,17.34
2019-04-25T20:15:23.439Z,17.32
2019-04-25T20:17:52.059Z,17.32
2019-04-25T20:20:20.410Z,17.31
2019-04-25T20:22:48.803Z,17.29
2019-04-25T20:25:17.148Z,17.24
2019-04-25T20:27:46.643Z,17.10
2019-04-25T20:30:15.114Z,17.00
2019-04-25T20:32:43.406Z,16.95
2019-04-25T20:35:11.734Z,16.93
2019-04-25T20:37:40.144Z,16.81
2019-04-25T20:40:08.598Z,16.71
2019-04-25T20:42:36.879Z,16.58
2019-04-25T20:45:07.520Z,16.47
2019-04-25T20:47:35.818Z,16.38
2019-04-25T20:50:05.558Z,16.31
2019-04-25T20:52:38.175Z,16.23
2019-04-25T20:55:07.652Z,16.17
2019-04-25T20:57:36.013Z,16.10
2019-04-25T21:00:08.912Z,16.07
2019-04-25T21:02:37.392Z,16.00
2019-04-25T21:05:06.378Z,16.00
2019-04-25T21:07:34.681Z,15.95
2019-04-25T21:10:03.000Z,15.89
2019-04-25T21:12:32.023Z,15.86
2019-04-25T21:15:01.966Z,15.81
2019-04-25T21:17:32.195Z,15.81
2019-04-25T21:20:01.258Z,15.78
2019-04-25T21:22:29.679Z,15.76
2019-04-25T21:24:58.046Z,15.74
2019-04-25T21:27:26.441Z,15.66
2019-04-25T21:29:55.558Z,15.58
2019-04-25T21:32:24.649Z,15.55
2019-04-25T21:34:53.683Z,15.53
2019-04-25T21:37:22.083Z,15.50
2019-04-25T21:39:58.550Z,15.47
2019-04-25T21:42:32.911Z,15.45
2019-04-25T21:45:02.695Z,15.43
2019-04-25T21:47:31.323Z,15.42
2019-04-25T21:50:00.640Z,15.41
2019-04-25T21:52:29.510Z,15.43
2019-04-25T21:54:58.596Z,15.40
2019-04-25T21:57:28.360Z,15.36
2019-04-25T22:00:03.632Z,15.36
2019-04-25T22:02:27.707Z,15.29
2019-04-25T22:04:56.706Z,15.20
2019-04-25T22:07:25.522Z,15.17
2019-04-25T22:09:55.587Z,15.19
2019-04-25T22:12:25.343Z,15.15
2019-04-25T22:14:53.656Z,15.14
2019-04-25T22:17:22.074Z,15.14
2019-04-25T22:19:50.730Z,15.13
2019-04-25T22:22:22.177Z,15.08
2019-04-25T22:24:50.580Z,15.05
2019-04-25T22:27:20.777Z,15.01
2019-04-25T22:29:50.935Z,14.99
2019-04-25T22:32:20.851Z,14.97
2019-04-25T22:34:54.208Z,14.96
2019-04-25T22:37:22.536Z,14.98
2019-04-25T22:39:51.813Z,15.01
2019-04-25T22:42:20.128Z,15.04
2019-04-25T22:44:48.501Z,15.03
2019-04-25T22:47:17.710Z,15.05
2019-04-25T22:49:46.363Z,15.08
2019-04-25T22:52:15.057Z,15.10
2019-04-25T22:54:43.625Z,15.09
2019-04-25T22:57:12.719Z,15.11
2019-04-25T22:59:41.367Z,15.13
2019-04-25T23:02:14.579Z,15.16
2019-04-25T23:05:09.122Z,15.17
2019-04-25T23:07:31.712Z,15.14
2019-04-25T23:10:01.952Z,15.07
2019-04-25T23:12:31.032Z,15.02
2019-04-25T23:14:59.819Z,15.01
2019-04-25T23:17:28.197Z,15.00
2019-04-25T23:19:56.851Z,14.97
2019-04-25T23:22:25.151Z,14.95
2019-04-25T23:24:55.288Z,14.90
2019-04-25T23:27:25.251Z,14.85
2019-04-25T23:29:53.606Z,14.81
2019-04-25T23:32:22.642Z,14.80
2019-04-25T23:34:50.959Z,14.81
2019-04-25T23:37:19.312Z,14.83
2019-04-25T23:39:48.222Z,14.87
2019-04-25T23:42:16.624Z,14.87
2019-04-25T23:44:45.244Z,14.88
2019-04-25T23:47:14.373Z,14.87
2019-04-25T23:49:42.929Z,14.86
2019-04-25T23:52:11.383Z,14.85
2019-04-25T23:54:39.726Z,14.86
2019-04-25T23:57:09.387Z,14.82
2019-04-25T23:59:37.721Z,14.82
